Time;durP1;ratioP1;P1;durP2;ratioP2;P2;SDS_P1;SDS_P2;PMS_P1;PMS_P2;Temp;Humidity;BMP_temperature;BMP_pressure;BME280_temperature;BME280_humidity;BME280_pressure;Samples;Min_cycle;Max_cycle;Signal;HPM_P1;HPM_P2
2022/02/14 00:01:40;;;;;;;3.30;1.45;;;8.40;52.50;;;;;;2289807;56;20956;-74
2022/02/14 00:04:07;;;;;;;4.03;2.12;;;8.40;52.60;;;;;;2291500;55;21102;-72
2022/02/14 00:06:34;;;;;;;3.83;1.80;;;8.30;52.70;;;;;;2286142;55;21011;-71
2022/02/14 00:09:00;;;;;;;5.00;2.22;;;8.20;52.70;;;;;;2300935;55;21076;-71
2022/02/14 00:11:26;;;;;;;5.32;2.33;;;8.10;52.70;;;;;;2289907;56;20956;-71
2022/02/14 00:13:53;;;;;;;5.57;2.30;;;8.00;52.70;;;;;;2290240;56;21029;-73
2022/02/14 00:16:20;;;;;;;5.85;2.17;;;7.90;52.80;;;;;;2289588;56;20949;-71
2022/02/14 00:18:46;;;;;;;3.97;1.92;;;7.90;53.00;;;;;;2289681;56;20996;-72
2022/02/14 00:21:13;;;;;;;4.80;2.30;;;7.80;53.00;;;;;;2289530;56;20948;-73
2022/02/14 00:23:42;;;;;;;5.30;2.08;;;7.70;53.00;;;;;;2521291;55;21016;-73
2022/02/14 00:26:08;;;;;;;4.62;2.28;;;7.70;53.20;;;;;;2288646;55;20973;-72
2022/02/14 00:28:34;;;;;;;4.45;2.20;;;7.60;53.20;;;;;;2345208;55;21536;-72
2022/02/14 00:31:01;;;;;;;4.85;2.03;;;7.50;53.20;;;;;;2289769;56;21016;-71
2022/02/14 00:33:28;;;;;;;4.12;2.00;;;7.40;53.30;;;;;;2289041;56;21115;-73
2022/02/14 00:35:54;;;;;;;5.00;1.95;;;7.40;53.40;;;;;;2290333;54;20990;-73
2022/02/14 00:38:22;;;;;;;3.95;1.95;;;7.30;53.30;;;;;;2288073;55;20941;-73
2022/02/14 00:40:48;;;;;;;4.15;2.08;;;7.20;53.40;;;;;;2291999;55;21624;-73
2022/02/14 00:43:14;;;;;;;5.28;2.37;;;7.20;53.50;;;;;;2288853;55;20951;-71
2022/02/14 00:45:41;;;;;;;5.65;2.35;;;7.10;53.60;;;;;;2289608;56;20945;-71
2022/02/14 00:48:07;;;;;;;5.80;2.47;;;7.00;53.60;;;;;;2289972;56;20932;-71
2022/02/14 00:50:33;;;;;;;4.32;2.00;;;7.00;53.70;;;;;;2291158;55;20944;-70
2022/02/14 00:52:59;;;;;;;4.82;2.12;;;6.90;53.70;;;;;;2291287;55;21001;-73
2022/02/14 00:55:26;;;;;;;4.75;2.00;;;6.90;53.80;;;;;;2311750;55;20985;-73
2022/02/14 00:57:52;;;;;;;5.30;2.30;;;6.80;53.80;;;;;;2289602;56;20992;-71
2022/02/14 01:00:18;;;;;;;6.47;2.42;;;6.80;53.90;;;;;;2320370;55;21335;-73
2022/02/14 01:02:45;;;;;;;4.60;2.55;;;6.70;53.90;;;;;;2348584;55;21017;-72
2022/02/14 01:05:11;;;;;;;4.78;2.45;;;6.70;54.10;;;;;;2292066;55;20910;-73
2022/02/14 01:07:38;;;;;;;5.12;2.65;;;6.60;54.10;;;;;;2392504;55;20961;-73
2022/02/14 01:10:05;;;;;;;5.00;2.80;;;6.60;54.20;;;;;;2291902;56;20960;-73
2022/02/14 01:12:34;;;;;;;7.35;3.28;;;6.50;54.20;;;;;;2456485;54;21024;-71
2022/02/14 01:15:04;;;;;;;5.82;2.65;;;6.50;54.40;;;;;;2289851;56;21481;-74
2022/02/14 01:17:33;;;;;;;5.85;2.80;;;6.40;54.40;;;;;;2521225;54;20982;-70
2022/02/14 01:20:03;;;;;;;5.03;2.67;;;6.40;54.50;;;;;;2288408;55;21000;-71
2022/02/14 01:22:29;;;;;;;5.45;2.62;;;6.30;54.50;;;;;;2312932;55;21008;-73
2022/02/14 01:24:56;;;;;;;8.45;3.20;;;6.30;54.60;;;;;;2289172;55;20928;-70
2022/02/14 01:27:22;;;;;;;6.37;2.90;;;6.30;54.70;;;;;;2524497;55;21390;-74
2022/02/14 01:29:48;;;;;;;5.07;2.92;;;6.20;54.70;;;;;;2381837;55;21060;-71
2022/02/14 01:32:17;;;;;;;5.32;2.60;;;6.20;54.80;;;;;;2293279;55;21005;-73
2022/02/14 01:34:46;;;;;;;6.10;2.70;;;6.20;55.00;;;;;;2287970;55;20948;-71
2022/02/14 01:37:13;;;;;;;5.90;2.58;;;6.10;54.90;;;;;;2289542;55;20947;-73
2022/02/14 01:39:39;;;;;;;7.20;2.67;;;6.10;55.00;;;;;;2290165;55;20952;-71
2022/02/14 01:42:06;;;;;;;6.40;2.90;;;6.10;55.10;;;;;;2289267;55;20969;-71
2022/02/14 01:44:42;;;;;;;5.22;2.80;;;6.10;55.20;;;;;;2290104;55;21046;-73
2022/02/14 01:47:17;;;;;;;5.80;2.70;;;6.10;55.30;;;;;;2301510;55;20952;-72
2022/02/14 01:49:44;;;;;;;6.07;2.45;;;6.00;55.30;;;;;;2289718;55;20980;-70
2022/02/14 01:52:12;;;;;;;4.12;2.12;;;6.00;55.70;;;;;;2301853;55;20968;-70
2022/02/14 01:54:43;;;;;;;4.70;2.25;;;6.10;56.00;;;;;;2289534;56;21615;-72
2022/02/14 01:57:11;;;;;;;4.03;1.60;;;6.10;56.30;;;;;;2444362;54;21017;-73
2022/02/14 01:59:37;;;;;;;4.12;1.48;;;6.10;56.60;;;;;;2288818;56;21013;-73
2022/02/14 02:02:04;;;;;;;3.47;1.70;;;6.30;57.30;;;;;;2289539;56;21016;-70
2022/02/14 02:04:31;;;;;;;3.42;1.10;;;6.50;58.00;;;;;;2289896;56;21445;-73
2022/02/14 02:06:57;;;;;;;3.65;1.33;;;6.70;58.40;;;;;;2288395;55;21562;-74
2022/02/14 02:09:24;;;;;;;5.05;1.60;;;7.00;58.90;;;;;;2289074;56;21378;-72
2022/02/14 02:14:35;;;;;;;2.90;1.52;;;7.70;59.10;;;;;;2369234;55;21029;-73
2022/02/14 02:17:02;;;;;;;3.00;1.20;;;8.10;59.20;;;;;;2304062;55;20948;-71
2022/02/14 02:19:28;;;;;;;3.33;1.25;;;8.40;59.00;;;;;;2400680;55;21012;-73
2022/02/14 02:21:55;;;;;;;4.68;1.20;;;8.70;58.80;;;;;;2289463;56;20933;-73
2022/02/14 02:24:22;;;;;;;3.65;1.10;;;9.00;58.60;;;;;;2289827;56;20932;-73
2022/02/14 02:26:56;;;;;;;5.22;1.30;;;9.20;58.40;;;;;;2290225;56;21018;-71
2022/02/14 02:29:23;;;;;;;3.67;0.88;;;9.50;57.90;;;;;;2491357;55;21017;-72
2022/02/14 02:31:49;;;;;;;2.55;1.00;;;9.70;58.00;;;;;;2377524;55;20929;-73
2022/02/14 02:34:15;;;;;;;2.62;1.10;;;10.00;57.00;;;;;;2289820;56;21080;-72
2022/02/14 02:36:46;;;;;;;3.80;1.05;;;10.20;56.60;;;;;;2289631;56;20992;-71
2022/02/14 02:39:13;;;;;;;3.20;1.00;;;10.40;56.20;;;;;;2289974;56;21012;-73
2022/02/14 02:41:39;;;;;;;3.47;1.15;;;10.50;56.30;;;;;;2387992;55;20983;-73
2022/02/14 02:44:06;;;;;;;3.45;1.23;;;10.70;56.00;;;;;;2289756;56;20956;-72
2022/02/14 02:46:32;;;;;;;3.65;1.05;;;10.80;55.70;;;;;;2289568;56;21022;-72
2022/02/14 02:49:21;;;;;;;3.35;1.10;;;11.00;55.60;;;;;;2289660;56;20998;-73
2022/02/14 02:51:51;;;;;;;2.20;0.70;;;11.20;54.60;;;;;;2289907;56;20937;-73
2022/02/14 02:54:18;;;;;;;2.62;0.90;;;11.30;55.20;;;;;;2304891;55;21579;-72
2022/02/14 02:57:00;;;;;;;3.00;0.80;;;11.40;55.10;;;;;;2289565;56;20944;-71
2022/02/14 02:59:27;;;;;;;2.72;1.00;;;11.50;54.20;;;;;;2267447;56;21032;-74
2022/02/14 03:01:53;;;;;;;4.82;1.23;;;11.60;54.60;;;;;;2291199;55;21427;-73
2022/02/14 03:04:19;;;;;;;4.60;1.30;;;11.70;54.60;;;;;;2378647;54;21039;-73
2022/02/14 03:06:46;;;;;;;2.95;1.00;;;11.70;54.50;;;;;;2289822;56;20945;-71
2022/02/14 03:09:15;;;;;;;2.67;1.05;;;11.80;54.20;;;;;;2289519;56;20980;-74
2022/02/14 03:11:42;;;;;;;3.17;0.90;;;11.90;54.20;;;;;;2289424;56;21701;-73
2022/02/14 03:14:08;;;;;;;7.53;2.85;;;12.00;54.10;;;;;;2289574;56;21044;-73
2022/02/14 03:16:35;;;;;;;19.87;7.90;;;12.00;53.90;;;;;;2292497;56;20957;-74
2022/02/14 03:19:01;;;;;;;19.60;7.85;;;12.10;53.70;;;;;;2283196;55;21001;-72
2022/02/14 03:21:28;;;;;;;29.87;11.02;;;12.00;53.10;;;;;;2323478;55;21466;-73
2022/02/14 03:23:56;;;;;;;19.55;7.60;;;11.90;52.60;;;;;;2290039;56;20985;-72
2022/02/14 03:26:22;;;;;;;11.45;5.53;;;11.80;52.30;;;;;;2289458;56;21040;-74
2022/02/14 03:28:52;;;;;;;9.20;4.15;;;11.70;51.90;;;;;;2290143;56;21020;-73
2022/02/14 03:31:18;;;;;;;7.00;3.30;;;11.50;51.60;;;;;;2368144;54;2670237;-72
2022/02/14 03:33:45;;;;;;;6.62;2.95;;;11.40;51.60;;;;;;2289783;56;20920;-73
2022/02/14 03:36:26;;;;;;;5.32;2.28;;;11.10;51.50;;;;;;2289120;55;21017;-73
2022/02/14 03:38:54;;;;;;;5.78;2.35;;;10.90;51.00;;;;;;2289898;56;21528;-73
2022/02/14 03:41:24;;;;;;;4.85;2.20;;;10.80;51.60;;;;;;2399801;55;21871;-74
2022/02/14 03:43:50;;;;;;;5.82;2.20;;;10.60;52.20;;;;;;2348858;54;21080;-74
2022/02/14 03:46:16;;;;;;;5.03;2.42;;;10.50;51.80;;;;;;2298301;55;20971;-73
2022/02/14 03:48:43;;;;;;;6.18;2.10;;;10.30;51.80;;;;;;2290296;54;21033;-72
2022/02/14 03:51:09;;;;;;;4.80;1.92;;;10.20;51.90;;;;;;2288598;55;20957;-72
2022/02/14 03:53:35;;;;;;;4.18;1.70;;;10.00;52.10;;;;;;2289681;55;20952;-73
2022/02/14 03:56:03;;;;;;;3.65;1.40;;;10.00;52.40;;;;;;2290012;56;20925;-73
2022/02/14 03:58:29;;;;;;;3.47;1.15;;;9.90;53.60;;;;;;2524037;54;20972;-71
2022/02/14 04:00:55;;;;;;;5.62;1.35;;;9.80;53.80;;;;;;2289565;56;20972;-74
2022/02/14 04:03:22;;;;;;;2.03;0.85;;;9.90;54.30;;;;;;2289878;56;20944;-72
2022/02/14 04:05:48;;;;;;;4.22;1.27;;;9.80;54.60;;;;;;2290168;56;20960;-74
2022/02/14 04:08:14;;;;;;;2.60;1.00;;;10.00;54.00;;;;;;2289540;56;21000;-73
2022/02/14 04:10:44;;;;;;;4.28;1.30;;;10.10;54.20;;;;;;2289702;56;20961;-73
2022/02/14 04:13:11;;;;;;;2.58;0.98;;;10.20;54.20;;;;;;2417775;55;21325;-72
2022/02/14 04:15:39;;;;;;;3.55;1.17;;;10.30;54.30;;;;;;2367833;55;21042;-74
2022/02/14 04:18:08;;;;;;;4.28;1.40;;;10.40;54.20;;;;;;2292869;55;20957;-73
2022/02/14 04:20:35;;;;;;;3.62;1.55;;;10.60;54.20;;;;;;2289887;56;21438;-72
2022/02/14 04:23:01;;;;;;;3.37;0.95;;;10.80;54.20;;;;;;2292954;55;21370;-73
2022/02/14 04:25:28;;;;;;;2.67;1.20;;;10.90;54.20;;;;;;2285620;55;20944;-72
2022/02/14 04:27:56;;;;;;;3.75;1.50;;;11.00;54.10;;;;;;2289821;56;20929;-73
2022/02/14 04:30:25;;;;;;;4.22;1.27;;;11.20;54.20;;;;;;2289977;56;20964;-71
2022/02/14 04:32:53;;;;;;;2.75;1.20;;;11.30;54.00;;;;;;2291451;55;21010;-73
2022/02/14 04:35:21;;;;;;;3.70;1.33;;;11.50;54.00;;;;;;2291911;55;20969;-72
2022/02/14 04:37:47;;;;;;;3.05;1.10;;;11.60;53.80;;;;;;2455604;55;20984;-73
2022/02/14 04:40:15;;;;;;;2.20;1.00;;;11.70;53.60;;;;;;2289361;56;21080;-72
2022/02/14 04:42:42;;;;;;;3.35;1.12;;;11.80;53.50;;;;;;2291359;55;21009;-73
2022/02/14 04:45:10;;;;;;;4.30;1.17;;;11.90;53.20;;;;;;2267417;56;20980;-74
2022/02/14 04:47:36;;;;;;;3.30;1.10;;;12.00;53.20;;;;;;2289990;56;20956;-72
2022/02/14 04:50:03;;;;;;;3.15;1.15;;;12.10;53.10;;;;;;2425688;55;21440;-73
2022/02/14 04:52:29;;;;;;;3.22;1.05;;;12.20;53.10;;;;;;2289747;56;20972;-71
2022/02/14 04:54:55;;;;;;;3.40;1.23;;;12.30;52.90;;;;;;2291781;55;20920;-72
2022/02/14 04:57:22;;;;;;;4.93;1.10;;;12.30;52.70;;;;;;2288849;56;21068;-72
2022/02/14 04:59:48;;;;;;;4.68;1.10;;;12.40;52.70;;;;;;2289797;56;20977;-71
2022/02/14 05:02:14;;;;;;;5.18;1.62;;;12.50;52.60;;;;;;2290111;56;20988;-73
2022/02/14 05:04:44;;;;;;;6.10;1.25;;;12.50;52.60;;;;;;2289014;56;21057;-72
2022/02/14 05:07:13;;;;;;;4.30;1.12;;;12.60;52.60;;;;;;2288826;56;20976;-72
2022/02/14 05:09:39;;;;;;;3.90;1.17;;;12.60;52.20;;;;;;2293011;55;21021;-73
2022/02/14 05:12:06;;;;;;;3.87;1.20;;;12.60;52.20;;;;;;2285605;54;21008;-73
2022/02/14 05:14:33;;;;;;;4.18;1.20;;;12.70;52.00;;;;;;2289340;56;21028;-73
2022/02/14 05:17:00;;;;;;;4.40;1.70;;;12.70;51.90;;;;;;2290036;56;20984;-72
2022/02/14 05:19:26;;;;;;;4.32;1.10;;;12.70;51.80;;;;;;2403510;55;21493;-73
2022/02/14 05:21:52;;;;;;;3.97;1.30;;;12.80;51.80;;;;;;2289317;56;20964;-73
2022/02/14 05:24:19;;;;;;;3.10;1.23;;;12.80;51.90;;;;;;2523804;54;20940;-72
2022/02/14 05:26:45;;;;;;;3.97;1.23;;;12.80;51.60;;;;;;2289618;56;20945;-73
2022/02/14 05:29:11;;;;;;;3.72;1.10;;;12.80;51.60;;;;;;2524203;54;20993;-74
2022/02/14 05:31:39;;;;;;;2.92;1.10;;;12.90;51.50;;;;;;2287630;55;20960;-73
2022/02/14 05:34:05;;;;;;;3.60;1.08;;;12.90;51.50;;;;;;2289954;56;21386;-71
2022/02/14 05:36:31;;;;;;;4.35;1.35;;;12.90;51.60;;;;;;2289730;56;20997;-72
2022/02/14 05:38:58;;;;;;;5.62;1.20;;;12.90;51.50;;;;;;2311513;55;21076;-72
2022/02/14 05:41:24;;;;;;;3.17;1.15;;;12.90;51.20;;;;;;2289141;56;20932;-72
2022/02/14 05:43:51;;;;;;;3.20;1.33;;;12.90;51.40;;;;;;2289677;56;21027;-71
2022/02/14 05:46:17;;;;;;;4.72;1.10;;;12.90;51.10;;;;;;2289546;56;21421;-73
2022/02/14 05:48:44;;;;;;;3.50;1.12;;;13.00;51.20;;;;;;2444077;55;21048;-72
2022/02/14 05:51:11;;;;;;;4.30;1.20;;;12.90;51.00;;;;;;2288988;55;20934;-74
2022/02/14 05:53:38;;;;;;;3.47;1.17;;;12.90;50.90;;;;;;2289594;55;21115;-73
2022/02/14 05:56:05;;;;;;;2.75;1.08;;;12.90;51.00;;;;;;2289565;56;21019;-72
2022/02/14 05:58:31;;;;;;;5.62;1.58;;;12.90;51.10;;;;;;2288801;56;21075;-73
2022/02/14 06:00:57;;;;;;;3.40;1.27;;;12.90;51.10;;;;;;2289928;56;20932;-73
2022/02/14 06:03:24;;;;;;;3.12;1.15;;;13.00;51.00;;;;;;2289154;55;21035;-71
2022/02/14 06:05:50;;;;;;;2.62;1.00;;;13.00;50.80;;;;;;2288840;55;20996;-72
2022/02/14 06:08:17;;;;;;;5.18;1.15;;;13.00;51.10;;;;;;2347930;55;20965;-73
2022/02/14 06:10:46;;;;;;;4.05;1.25;;;13.10;51.30;;;;;;2288847;55;21586;-74
2022/02/14 06:13:12;;;;;;;4.45;1.27;;;13.10;51.40;;;;;;2281732;55;21012;-72
2022/02/14 06:15:39;;;;;;;3.05;1.02;;;13.10;51.40;;;;;;2287420;55;20965;-72
2022/02/14 06:18:06;;;;;;;4.72;1.20;;;13.20;51.50;;;;;;2289607;55;21830;-72
2022/02/14 06:20:32;;;;;;;5.43;1.40;;;13.30;51.50;;;;;;2289320;56;20964;-74
2022/02/14 06:22:59;;;;;;;3.00;1.17;;;13.30;51.30;;;;;;2289947;56;20940;-73
2022/02/14 06:25:25;;;;;;;7.30;1.30;;;13.30;51.50;;;;;;2288437;56;21004;-73
2022/02/14 06:27:51;;;;;;;3.17;1.20;;;13.30;51.50;;;;;;2486274;54;20949;-74
2022/02/14 06:30:19;;;;;;;5.40;1.42;;;13.30;51.40;;;;;;2289994;56;20992;-72
2022/02/14 06:32:54;;;;;;;6.57;1.25;;;13.40;51.50;;;;;;2289807;56;20953;-72
2022/02/14 06:35:24;;;;;;;6.93;1.60;;;13.40;51.10;;;;;;2285907;56;20936;-74
2022/02/14 06:37:50;;;;;;;7.87;2.10;;;13.50;51.50;;;;;;2267975;56;20941;-73
2022/02/14 06:40:17;;;;;;;5.50;1.30;;;13.50;51.60;;;;;;2504761;54;20963;-73
2022/02/14 06:42:47;;;;;;;6.00;1.40;;;13.50;51.80;;;;;;2292178;55;21076;-73
2022/02/14 06:45:15;;;;;;;5.18;1.30;;;13.60;51.60;;;;;;2369641;54;20960;-73
2022/02/14 06:47:43;;;;;;;6.10;1.33;;;13.60;51.80;;;;;;2287638;54;21058;-73
2022/02/14 06:50:09;;;;;;;3.62;1.40;;;13.60;52.00;;;;;;2287028;55;21022;-74
2022/02/14 06:52:36;;;;;;;5.00;1.42;;;13.70;51.90;;;;;;2300595;55;21500;-73
2022/02/14 06:55:03;;;;;;;4.15;1.37;;;13.70;51.90;;;;;;2291514;55;20953;-72
2022/02/14 06:57:31;;;;;;;3.60;1.10;;;13.70;51.90;;;;;;2293978;55;21038;-73
2022/02/14 06:59:58;;;;;;;3.42;1.27;;;13.80;52.10;;;;;;2401701;54;21022;-73
2022/02/14 07:02:25;;;;;;;5.70;1.30;;;13.80;52.00;;;;;;2294196;55;20937;-72
2022/02/14 07:04:53;;;;;;;6.10;1.30;;;13.90;51.80;;;;;;2290008;56;20977;-71
2022/02/14 07:07:20;;;;;;;4.50;1.55;;;13.90;51.90;;;;;;2290210;56;20937;-73
2022/02/14 07:09:47;;;;;;;2.72;1.17;;;13.90;51.80;;;;;;2288966;55;21301;-74
2022/02/14 07:12:13;;;;;;;6.82;1.25;;;14.10;51.80;;;;;;2303448;54;21043;-73
2022/02/14 07:14:39;;;;;;;4.15;1.23;;;14.10;51.80;;;;;;2289818;56;20933;-73
2022/02/14 07:17:06;;;;;;;6.07;1.80;;;14.10;51.70;;;;;;2288883;55;21024;-74
2022/02/14 07:19:32;;;;;;;4.55;1.33;;;14.20;51.80;;;;;;2296458;55;21028;-73
2022/02/14 07:22:00;;;;;;;5.00;1.50;;;14.20;51.80;;;;;;2289647;56;20952;-72
2022/02/14 07:24:26;;;;;;;5.20;1.27;;;14.30;51.90;;;;;;2289731;56;20956;-73
2022/02/14 07:26:53;;;;;;;3.58;1.23;;;14.30;51.70;;;;;;2292820;55;21550;-73
2022/02/14 07:29:20;;;;;;;6.68;1.92;;;14.40;51.80;;;;;;2287405;55;21068;-73
2022/02/14 07:31:46;;;;;;;4.47;1.58;;;14.40;51.70;;;;;;2289277;56;20975;-72
2022/02/14 07:34:13;;;;;;;6.30;1.40;;;14.40;51.70;;;;;;2290091;56;21015;-73
2022/02/14 07:36:39;;;;;;;4.10;1.30;;;14.50;51.90;;;;;;2293548;55;21027;-72
2022/02/14 07:39:06;;;;;;;4.07;1.30;;;14.50;51.80;;;;;;2281924;55;21025;-74
2022/02/14 07:41:34;;;;;;;4.85;1.60;;;14.50;51.70;;;;;;2289753;56;21020;-73
2022/02/14 07:44:00;;;;;;;4.78;1.17;;;14.60;51.80;;;;;;2289973;56;20997;-73
2022/02/14 07:46:27;;;;;;;5.20;1.40;;;14.60;51.60;;;;;;2290136;56;21020;-74
2022/02/14 07:48:57;;;;;;;4.37;1.50;;;14.60;51.60;;;;;;2291789;55;20953;-72
2022/02/14 07:51:25;;;;;;;4.53;1.15;;;14.70;51.00;;;;;;2395952;54;20992;-73
2022/02/14 07:53:52;;;;;;;4.90;1.30;;;14.70;51.30;;;;;;2441641;55;20929;-72
2022/02/14 07:56:21;;;;;;;5.53;2.17;;;14.70;51.40;;;;;;2291986;55;20973;-73
2022/02/14 07:58:50;;;;;;;5.65;1.87;;;14.80;51.30;;;;;;2286126;54;20992;-74
2022/02/14 08:01:17;;;;;;;6.30;1.65;;;14.80;51.10;;;;;;2302883;55;21008;-73
2022/02/14 08:03:44;;;;;;;4.37;1.27;;;14.80;51.30;;;;;;2288838;56;21004;-73
2022/02/14 08:06:23;;;;;;;4.15;1.27;;;14.80;51.10;;;;;;2290019;56;20996;-73
2022/02/14 08:08:50;;;;;;;8.65;1.80;;;14.80;51.30;;;;;;2291443;55;21584;-74
2022/02/14 08:11:17;;;;;;;4.70;1.60;;;14.90;51.60;;;;;;2342020;55;21741;-71
2022/02/14 08:13:46;;;;;;;4.10;1.55;;;14.80;51.10;;;;;;2354520;55;21511;-73
2022/02/14 08:16:12;;;;;;;5.97;1.45;;;14.90;51.40;;;;;;2316331;54;20956;-74
2022/02/14 08:18:40;;;;;;;6.30;1.92;;;14.90;51.40;;;;;;2289299;56;21430;-72
2022/02/14 08:21:07;;;;;;;2.53;1.23;;;14.90;50.70;;;;;;2289621;56;21012;-73
2022/02/14 08:23:34;;;;;;;4.65;1.20;;;14.90;51.10;;;;;;2289637;56;20968;-72
2022/02/14 08:26:00;;;;;;;5.47;1.92;;;14.90;51.50;;;;;;2338856;55;21787;-73
2022/02/14 08:28:27;;;;;;;4.45;1.45;;;14.90;51.40;;;;;;2290046;55;20968;-72
2022/02/14 08:30:53;;;;;;;5.78;1.30;;;14.90;51.50;;;;;;2293707;55;20938;-72
2022/02/14 08:33:21;;;;;;;4.30;1.40;;;15.00;51.40;;;;;;2270785;55;21028;-73
2022/02/14 08:35:48;;;;;;;5.07;1.60;;;15.00;50.90;;;;;;2304023;55;21003;-73
2022/02/14 08:38:14;;;;;;;4.30;1.30;;;15.00;51.20;;;;;;2290428;55;21004;-72
2022/02/14 08:40:41;;;;;;;4.28;1.77;;;15.00;51.20;;;;;;2327011;55;21001;-73
2022/02/14 08:43:08;;;;;;;7.15;1.77;;;15.00;51.00;;;;;;2285419;55;20976;-74
2022/02/14 08:45:47;;;;;;;3.62;1.27;;;15.10;50.60;;;;;;2289530;56;21644;-74
2022/02/14 08:48:14;;;;;;;3.45;1.20;;;15.10;50.70;;;;;;2289805;55;21062;-73
2022/02/14 08:50:41;;;;;;;7.00;1.77;;;15.10;50.80;;;;;;2288259;56;20937;-72
2022/02/14 08:53:08;;;;;;;4.72;1.42;;;15.20;50.70;;;;;;2385505;55;20968;-72
2022/02/14 08:55:34;;;;;;;5.45;1.30;;;15.20;50.40;;;;;;2290370;55;21078;-72
2022/02/14 08:58:01;;;;;;;5.05;1.40;;;15.20;50.70;;;;;;2288362;55;20933;-73
2022/02/14 09:00:28;;;;;;;6.72;1.50;;;15.20;50.70;;;;;;2288585;56;20968;-74
2022/02/14 09:02:54;;;;;;;4.93;1.30;;;15.20;50.60;;;;;;2289968;56;20958;-72
2022/02/14 09:05:21;;;;;;;9.60;1.52;;;15.20;50.80;;;;;;2287757;55;21021;-73
2022/02/14 09:07:47;;;;;;;4.35;1.45;;;15.20;50.70;;;;;;2289111;55;20952;-72
2022/02/14 09:10:16;;;;;;;3.75;1.30;;;15.30;50.80;;;;;;2289047;56;20956;-73
2022/02/14 09:12:43;;;;;;;5.15;1.75;;;15.30;51.00;;;;;;2303503;55;21028;-73
2022/02/14 09:15:09;;;;;;;5.62;1.58;;;15.30;51.00;;;;;;2292227;55;21053;-71
2022/02/14 09:17:36;;;;;;;3.22;1.30;;;15.40;50.70;;;;;;2286043;55;20940;-72
2022/02/14 09:20:14;;;;;;;5.72;1.25;;;15.40;51.00;;;;;;2291953;55;21420;-74
2022/02/14 09:22:41;;;;;;;5.87;1.60;;;15.40;50.60;;;;;;2494735;54;21739;-72
2022/02/14 09:25:08;;;;;;;5.25;1.60;;;15.50;51.00;;;;;;2289382;56;21511;-73
2022/02/14 09:27:35;;;;;;;4.07;1.62;;;15.50;51.00;;;;;;2289362;56;20992;-72
2022/02/14 09:30:02;;;;;;;7.12;1.70;;;15.50;50.40;;;;;;2289755;56;20976;-71
2022/02/14 09:32:31;;;;;;;5.53;1.90;;;15.50;50.10;;;;;;2337732;54;21022;-73
2022/02/14 09:34:58;;;;;;;6.18;1.62;;;15.50;50.00;;;;;;2287780;55;21032;-73
2022/02/14 09:37:25;;;;;;;4.50;1.60;;;15.50;50.30;;;;;;2289773;55;21017;-73
2022/02/14 09:39:51;;;;;;;5.10;1.40;;;15.50;49.60;;;;;;2290272;55;20958;-72
2022/02/14 09:42:17;;;;;;;5.05;1.52;;;15.60;49.80;;;;;;2347525;54;20948;-74
2022/02/14 09:44:45;;;;;;;7.45;1.40;;;15.60;49.60;;;;;;2289315;55;21024;-73
2022/02/14 09:47:11;;;;;;;6.95;1.55;;;15.60;49.80;;;;;;2337855;54;20961;-72
2022/02/14 09:49:41;;;;;;;6.15;1.60;;;15.60;50.20;;;;;;2289352;56;21727;-73
2022/02/14 09:52:08;;;;;;;7.15;1.42;;;15.60;49.80;;;;;;2289393;56;21080;-74
2022/02/14 09:54:35;;;;;;;5.10;1.40;;;15.60;49.90;;;;;;2487677;54;21472;-73
2022/02/14 09:57:01;;;;;;;4.37;1.25;;;15.70;50.30;;;;;;2289739;56;21012;-72
2022/02/14 09:59:27;;;;;;;5.55;1.33;;;15.60;50.40;;;;;;2357353;55;21524;-72
2022/02/14 10:01:53;;;;;;;3.42;1.20;;;15.70;50.60;;;;;;2288490;55;21437;-73
2022/02/14 10:04:21;;;;;;;5.87;1.58;;;15.70;50.20;;;;;;2290083;56;20952;-74
2022/02/14 10:06:48;;;;;;;6.22;1.40;;;15.70;50.10;;;;;;2395674;55;20942;-72
2022/02/14 10:09:19;;;;;;;3.78;1.40;;;15.70;49.80;;;;;;2268693;56;21884;-72
2022/02/14 10:12:03;;;;;;;3.62;1.62;;;15.70;50.00;;;;;;2293215;54;20966;-74
2022/02/14 10:14:29;;;;;;;7.62;1.65;;;15.70;49.90;;;;;;2286915;54;21043;-74
2022/02/14 10:17:18;;;;;;;4.32;1.75;;;15.70;50.30;;;;;;2289791;56;20968;-74
2022/02/14 10:19:58;;;;;;;5.25;1.55;;;15.70;49.20;;;;;;2291435;55;21061;-74
2022/02/14 10:22:25;;;;;;;4.62;1.58;;;15.70;49.60;;;;;;2271744;55;20961;-73
2022/02/14 10:24:51;;;;;;;7.80;2.08;;;15.70;50.10;;;;;;2288708;56;21036;-74
2022/02/14 10:27:18;;;;;;;7.72;1.98;;;15.70;50.10;;;;;;2291403;55;20998;-72
2022/02/14 10:29:44;;;;;;;5.47;2.15;;;15.70;50.20;;;;;;2286190;55;20964;-74
2022/02/14 10:32:19;;;;;;;3.42;1.37;;;15.70;49.90;;;;;;2290155;55;20977;-74
2022/02/14 10:34:49;;;;;;;5.53;1.52;;;15.70;49.80;;;;;;2334818;55;20984;-74
2022/02/14 10:37:18;;;;;;;4.75;1.25;;;15.70;50.10;;;;;;2267613;56;21548;-72
2022/02/14 10:39:46;;;;;;;4.55;1.60;;;15.60;50.30;;;;;;2411488;55;21718;-73
2022/02/14 10:42:13;;;;;;;3.90;1.37;;;15.60;50.20;;;;;;2391325;55;21124;-73
2022/02/14 10:47:42;;;;;;;5.27;2.33;;;15.60;50.40;;;;;;2310978;55;21029;-73
2022/02/14 10:50:15;;;;;;;5.40;1.80;;;15.60;50.20;;;;;;2289677;56;21379;-73
2022/02/14 10:52:46;;;;;;;4.28;1.42;;;15.60;50.60;;;;;;2289906;56;20993;-72
2022/02/14 10:55:17;;;;;;;4.70;1.60;;;15.70;50.70;;;;;;2289964;56;21016;-72
2022/02/14 10:57:48;;;;;;;4.03;1.67;;;15.70;50.70;;;;;;2289361;56;20993;-71
2022/02/14 11:00:19;;;;;;;4.15;1.60;;;15.70;50.90;;;;;;2363186;54;20997;-73
2022/02/14 11:02:51;;;;;;;3.22;1.27;;;15.70;51.10;;;;;;2289681;55;21005;-72
2022/02/14 11:05:19;;;;;;;3.37;1.33;;;15.70;51.10;;;;;;2355593;55;20987;-74
2022/02/14 11:07:47;;;;;;;4.55;1.23;;;15.80;51.30;;;;;;2289742;55;20993;-74
2022/02/14 11:10:16;;;;;;;4.25;1.15;;;15.80;51.50;;;;;;2288861;55;21041;-73
2022/02/14 11:12:56;;;;;;;3.10;1.30;;;15.90;51.60;;;;;;2291101;55;20975;-73
2022/02/14 11:15:23;;;;;;;3.90;1.37;;;16.00;51.20;;;;;;2291863;56;21008;-74
2022/02/14 11:17:54;;;;;;;3.75;1.42;;;16.00;51.30;;;;;;2289898;55;21359;-73
2022/02/14 11:20:23;;;;;;;4.25;1.35;;;16.10;51.10;;;;;;2289309;55;20956;-73
2022/02/14 11:22:50;;;;;;;5.20;1.12;;;16.20;51.90;;;;;;2291848;55;21008;-72
2022/02/14 11:27:58;;;;;;;3.95;1.50;;;16.30;52.30;;;;;;2290226;56;21124;-74
2022/02/14 11:30:24;;;;;;;3.60;1.20;;;16.60;51.80;;;;;;2290109;56;20997;-71
2022/02/14 11:33:26;;;;;;;3.90;1.40;;;16.70;51.50;;;;;;2291013;55;21379;-74
2022/02/14 11:36:07;;;;;;;3.62;1.40;;;16.80;49.30;;;;;;2289655;55;21013;-73
2022/02/14 11:38:51;;;;;;;4.87;1.50;;;16.80;50.10;;;;;;2289874;56;21020;-73
2022/02/14 11:42:18;;;;;;;4.00;1.33;;;16.70;50.20;;;;;;2289900;56;20949;-73
2022/02/14 11:44:46;;;;;;;3.67;1.40;;;16.70;50.20;;;;;;2289843;56;20941;-74
2022/02/14 11:47:14;;;;;;;3.20;1.20;;;16.70;50.10;;;;;;2289395;56;20980;-72
2022/02/14 11:49:44;;;;;;;3.55;1.17;;;16.60;50.10;;;;;;2290226;55;20945;-73
2022/02/14 11:52:29;;;;;;;4.37;1.50;;;16.50;50.30;;;;;;2289467;55;21071;-72
2022/02/14 11:54:56;;;;;;;3.58;1.10;;;16.50;49.80;;;;;;2290011;55;20936;-72
2022/02/14 11:57:33;;;;;;;4.55;1.58;;;16.40;50.30;;;;;;2289620;56;21402;-74
2022/02/14 12:03:31;;;;;;;6.25;1.37;;;16.40;50.30;;;;;;2267039;55;20948;-73
2022/02/14 12:06:01;;;;;;;3.17;0.95;;;16.40;50.50;;;;;;2293154;56;21012;-75
2022/02/14 12:08:57;;;;;;;3.80;1.15;;;16.30;51.00;;;;;;2297394;55;20945;-71
2022/02/14 12:11:47;;;;;;;6.00;1.80;;;16.30;50.80;;;;;;2292437;55;20993;-72
2022/02/14 12:14:17;;;;;;;4.32;1.67;;;16.30;51.10;;;;;;2291761;55;20957;-73
2022/02/14 12:22:44;;;;;;;3.20;1.20;;;16.20;50.60;;;;;;2424331;55;21461;-74
2022/02/14 12:25:10;;;;;;;4.03;1.85;;;16.20;50.30;;;;;;2289718;56;20945;-73
2022/02/14 12:27:36;;;;;;;4.20;1.27;;;16.20;50.40;;;;;;2288956;56;21405;-74
2022/02/14 12:30:21;;;;;;;3.90;1.40;;;16.20;50.60;;;;;;2289862;56;21442;-73
2022/02/14 12:32:49;;;;;;;3.47;1.42;;;16.00;50.40;;;;;;2289828;56;20949;-74
2022/02/14 12:35:32;;;;;;;3.53;1.10;;;16.00;50.90;;;;;;2486347;54;21527;-74
2022/02/14 12:37:58;;;;;;;5.22;1.42;;;16.00;50.80;;;;;;2289991;56;21504;-72
2022/02/14 12:41:06;;;;;;;6.18;1.70;;;16.00;51.00;;;;;;2289924;56;21588;-71
2022/02/14 12:43:40;;;;;;;5.85;1.70;;;15.90;50.90;;;;;;2484405;55;21066;-72
2022/02/14 12:46:14;;;;;;;4.05;1.62;;;15.90;50.80;;;;;;2286532;55;21009;-72
2022/02/14 12:48:50;;;;;;;3.90;1.48;;;15.80;50.80;;;;;;2290888;55;20938;-73
2022/02/14 12:51:26;;;;;;;4.78;1.42;;;15.70;51.00;;;;;;2287764;55;21032;-74
2022/02/14 12:54:03;;;;;;;3.72;1.60;;;15.70;51.10;;;;;;2291237;55;20994;-73
2022/02/14 12:56:34;;;;;;;4.18;1.58;;;15.60;51.10;;;;;;2334541;55;20977;-73
2022/02/14 12:59:02;;;;;;;4.18;1.30;;;15.50;51.40;;;;;;2327658;55;20942;-74
2022/02/14 13:01:38;;;;;;;3.22;1.20;;;15.50;51.40;;;;;;2285769;54;20964;-72
2022/02/14 13:04:10;;;;;;;4.15;1.30;;;15.40;51.60;;;;;;2290105;55;20978;-73
2022/02/14 13:06:51;;;;;;;3.40;1.20;;;15.30;51.90;;;;;;2294110;55;21042;-72
2022/02/14 13:09:30;;;;;;;3.92;1.50;;;15.20;52.10;;;;;;2274813;55;21673;-73
2022/02/14 13:12:04;;;;;;;3.30;0.90;;;15.20;52.10;;;;;;2289337;56;20984;-73
2022/02/14 13:14:44;;;;;;;2.58;1.02;;;15.10;52.40;;;;;;2289115;56;21507;-73